Terminal Aerodrome Forecast
Issued by NWS Charleston, WV

Current Version | Previous Version | Graphics & Text | Print | Product List | Glossary On
Versions: 1 2 3 4 5 6 7 8 9 10 11 12 13 14 15 16 17 18 19 20 21 22 23
000
FTUS41 KRLX 041120
TAFCRW
TAF
KCRW 041120Z 0412/0512 00000KT P6SM BKN035
     FM041300 00000KT P6SM BKN015
     FM041500 00000KT P6SM SCT025
     FM041700 27006KT P6SM FEW035
     FM050100 00000KT P6SM SCT050
     FM050700 00000KT 5SM BR BKN040
     FM050900 00000KT 3SM BR SCT040=

USA.gov is the U.S. government's official web portal to all federal, state and local government web resources and services.